METAR Data
IDs: Format: Raw Decoded Include TAF

Data at: 0303 UTC 18 Jun 2019

PASM 180202Z AUTO 34017G20KT 10SM CLR 21/06 A2968 RMK AO2 SLP056 T02110056
PASM 180102Z AUTO 33015G20KT 10SM CLR 22/08 A2969 RMK AO2 SLP057 T02170078
PASM 180002Z AUTO 34011G20KT 300V010 10SM CLR 22/07 A2970 RMK AO2 SLP062 T02170067 10217 20172 58012
PASM 172302Z AUTO 32011G19KT 10SM CLR 21/08 A2971 RMK AO2 SLP066 T02110078
PASM 172202Z AUTO 33013G21KT 10SM CLR 20/07 A2973 RMK AO2 SLP071 T02000072
PASM 172102Z AUTO 35017KT 10SM CLR 19/08 A2974 RMK AO2 SLP075 T01940078 56004
PASM 172002Z AUTO 33015KT 10SM CLR 19/09 A2975 RMK AO2 SLP078 T01940094
PASM 171902Z AUTO 34011KT 10SM CLR 19/11 A2975 RMK AO2 SLP079 T01890106
PASM 171802Z AUTO 35012KT 10SM CLR 17/10 A2975 RMK AO2 SLP080 T01720100 10172 20106 58001
PASM 171702Z AUTO 34010KT 10SM CLR 16/11 A2976 RMK AO2 SLP083 T01560106
PASM 171602Z AUTO 36008KT 10SM FEW085 14/08 A2976 RMK AO2 SLP084 T01390078
PASM 171502Z AUTO 36005KT 10SM OVC080 11/08 A2976 RMK AO2 SLP084 T01110083 55002
PASM 171402Z AUTO 01005KT 10SM CLR 11/08 A2976 RMK AO2 SLP083 T01060078
PASM 171302Z AUTO 01009KT 10SM SCT100 12/09 A2976 RMK AO2 SLP084 T01170089
PASM 171202Z AUTO 04003KT 10SM SCT080 BKN095 11/09 A2976 RMK AO2 SLP084 60000 70013 T01110094 10156 20111 58007
PASM 171102Z AUTO 01005KT 10SM FEW080 13/10 A2977 RMK AO2 SLP086 T01280100
PASM 171002Z AUTO 36006KT 10SM OVC080 14/11 A2978 RMK AO2 SLP089 T01390111
PASM 170902Z AUTO 36004KT 10SM BKN070 OVC085 13/12 A2979 RMK AO2 SLP094 60008 T01330117 56000
PASM 170802Z AUTO 36006KT 10SM OVC095 15/12 A2979 RMK AO2 SLP094 T01500122 401500150
PASM 170702Z AUTO 02005KT 10SM OVC065 15/12 A2979 RMK AO2 RAB0613E0643 SLP094 P0000 T01500122
PASM 170602Z AUTO 36008KT 10SM OVC070 15/12 A2978 RMK AO2 RAE0534 SLP091 P0005 60013 T01500122 10194 20133 58001
PASM 170502Z AUTO 01009KT 9SM -RA SCT060 OVC080 16/13 A2979 RMK AO2 RAB0423 SLP093 P0000 T01610133
PASM 170402Z AUTO 32006KT 10SM OVC090 16/13 A2978 RMK AO2 RAE0332 SLP092 P0003 T01560128
PASM 170302Z AUTO 03008KT 6SM RA BR SCT047 OVC070 13/12 A2982 RMK AO2 RAB0230 SLP103 P0004 60005 T01330122 58009
PASM 170202Z AUTO 36011KT 10SM SCT080 BKN100 18/12 A2979 RMK AO2 RAE0130 SLP095 P0001 T01830117
PASM 170102Z AUTO 04006KT 10SM -RA FEW047 SCT060 OVC075 15/12 A2981 RMK AO2 RAE0013B0030 SLP102 P0000 T01500122
PASM 170002Z AUTO 02011G17KT 10SM -RA FEW050 BKN070 OVC085 19/10 A2981 RMK AO2 RAE2325B2341 SLP101 P0000 60000 T01890100 10200 20156 56007
PASM 162302Z AUTO 07004KT 10SM -RA SCT049 BKN065 OVC085 16/11 A2982 RMK AO2 RAB2212E2223B2252 SLP105 P0000 T01610106
PASM 162102Z AUTO 03008KT 10SM BKN075 18/08 A2984 RMK AO2 SLP109 T01830083 50000
PASM 162002Z AUTO 03009KT 10SM SCT070 17/08 A2984 RMK AO2 SLP111 T01720078
PASM 161902Z AUTO 03004KT 10SM CLR 16/09 A2985 RMK AO2 SLP112 T01610094
PASM 161802Z AUTO 05003KT 10SM CLR 16/11 A2984 RMK AO2 SLP111 T01560106 10156 20078 51005
PASM 161702Z AUTO 04005KT 10SM OVC070 12/09 A2984 RMK AO2 SLP112 T01220094
PASM 161602Z AUTO 03004KT 10SM OVC070 11/08 A2984 RMK AO2 SLP109 T01060083